Saint Sigismond ULM

FR-0339 · Maine-et-Loire, 卢瓦尔河地区, 法国

使用的METAR站距离机场49 km。
罗盘
风向 的 风向 220° Saint Sigismond ULM 10/28
风: 8 kt, 3 beaufort

5 kt

7 kt
改变
0 ft 1.000 2.000 3.000 4.000 5.000
CAVOK
METAR LFJR 152330Z AUTO 22008KT CAVOK 16/14 Q1013

METAR Saint Sigismond ULM - FR-0339

Saint Sigismond ULM是,法国中的超轻型飞机场。 该机场位于纬度47,43950和经度-0,93560。 该机场有一条跑道: 10/28. 这个机场没有ICAO代码,我们使用FR-0339作为参考。 机场在Brest FIR中。

该航空气象观测是针对Angers-Marce Airport在2024年7月16日 01:30, 当地时间进行的。

机场观察

风向为220°,速度为8 kt。

天气为CAVOK。这意味着在5.000 ft或MSA(最低安全高度)以下(以较高者为准)以下没有云。这也意味着没有观测到积雨云或高耸的积云,可见度为10 km 或者更多或更高。此外,不会有雾,降雨或其他重要天气。

温度和风寒是16 °C。 露点为14 °C,相对湿度为88%。 海平面上的气压为1013 hPa (QNH)。

白天

今天,太阳从06:22升起,在21:56降落。 这适用于Saint Sigismond ULM,世界夏令时可能有所不同。 当地时间与世界标准时间之间的时差为+2 小时。 夏令时目前正在进行中。

公司介绍

我们没有关于这个机场的公司信息。

体会

到Vliegles.nl去找飞行课程,跳伞和其他飞行体验。 浏览页面,了解Saint Sigismond ULM附近所有可用的活动。 你也可以使用搜索功能来寻找你所在地附近的特定飞行课程、跳伞或其他飞行体验。

跑道

Id 标题 侧风 逆风 侧风 %
10/28 095°-275° 7 kt 5 kt 82 %

逆风成分最大的方向会被突出显示,并用于横风计算。 这并不一定意味着这个方向在使用。

温度 & 天气

温度 16 °C
露点 14 °C
相对湿度 88%
Kp-index 3 (0-9)

白天

日出
06:19 (4:44)
中午
14:07
日落
21:54

小工具

你想在你的网站上有一个关于Saint Sigismond ULM的当前航空天气(METAR)的小部件吗?

显示HTML代码
报告变更